createdAt,value
2023-01-13T00:01:38.323Z,97503.19
2023-01-13T00:04:06.822Z,97513.31
2023-01-13T00:06:35.323Z,97501.69
2023-01-13T00:09:04.500Z,97499.56
2023-01-13T00:11:33.254Z,97500.47
2023-01-13T00:14:01.720Z,97494.41
2023-01-13T00:16:30.197Z,97500.00
2023-01-13T00:19:00.048Z,97494.59
2023-01-13T00:21:28.835Z,97491.13
2023-01-13T00:23:57.296Z,97493.97
2023-01-13T00:26:33.645Z,97504.50
2023-01-13T00:29:04.254Z,97495.91
2023-01-13T00:31:32.957Z,97494.75
2023-01-13T00:34:03.158Z,97491.50
2023-01-13T00:36:32.839Z,97482.28
2023-01-13T00:39:01.446Z,97487.63
2023-01-13T00:41:49.975Z,97478.25
2023-01-13T00:44:17.695Z,97473.47
2023-01-13T00:46:46.296Z,97468.03
2023-01-13T00:49:16.410Z,97462.13
2023-01-13T00:51:44.965Z,97464.53
2023-01-13T00:54:13.483Z,97458.97
2023-01-13T00:56:42.154Z,97452.16
2023-01-13T00:59:14.349Z,97452.28
2023-01-13T01:01:43.233Z,97459.34
2023-01-13T01:04:12.155Z,97457.25
2023-01-13T01:06:42.301Z,97453.47
2023-01-13T01:09:14.839Z,97446.78
2023-01-13T01:11:44.480Z,97441.00
2023-01-13T01:14:15.287Z,97438.78
2023-01-13T01:16:43.830Z,97438.47
2023-01-13T01:19:12.406Z,97438.97
2023-01-13T01:21:43.502Z,97439.59
2023-01-13T01:24:12.437Z,97440.88
2023-01-13T01:26:41.884Z,97434.31
2023-01-13T01:29:14.494Z,97434.19
2023-01-13T01:31:44.055Z,97429.72
2023-01-13T01:34:12.721Z,97431.94
2023-01-13T01:36:43.790Z,97430.19
2023-01-13T01:39:12.373Z,97423.63
2023-01-13T01:42:00.814Z,97421.56
2023-01-13T01:44:59.835Z,97418.22
2023-01-13T01:47:32.632Z,97424.44
2023-01-13T01:50:05.245Z,97413.06
2023-01-13T01:52:41.776Z,97404.63
2023-01-13T01:55:17.083Z,97402.41
2023-01-13T01:57:54.456Z,97404.34
2023-01-13T02:00:23.693Z,97406.25
2023-01-13T02:02:53.912Z,97411.03
2023-01-13T02:05:23.007Z,97405.63
2023-01-13T02:07:58.051Z,97404.22
2023-01-13T02:10:30.048Z,97409.16
2023-01-13T02:13:02.000Z,97399.75
2023-01-13T02:15:42.755Z,97397.53
2023-01-13T02:18:39.846Z,97393.19
2023-01-13T02:21:49.555Z,97392.09
2023-01-13T02:25:13.183Z,97388.41
2023-01-13T02:28:12.286Z,97391.16
2023-01-13T02:31:05.465Z,97389.56
2023-01-13T02:34:03.050Z,97377.91
2023-01-13T02:36:42.817Z,97381.44
2023-01-13T02:39:19.581Z,97384.31
2023-01-13T02:42:15.024Z,97379.66
2023-01-13T02:44:48.958Z,97384.78
2023-01-13T02:47:24.012Z,97381.75
2023-01-13T02:49:59.173Z,97384.94
2023-01-13T02:52:35.753Z,97385.75
2023-01-13T02:55:09.931Z,97374.59
2023-01-13T02:57:42.373Z,97369.66
2023-01-13T03:00:14.538Z,97365.00
2023-01-13T03:02:44.668Z,97369.97
2023-01-13T03:05:17.866Z,97360.72
2023-01-13T03:08:24.136Z,97370.28
2023-01-13T03:11:03.944Z,97367.41
2023-01-13T03:14:08.931Z,97371.53
2023-01-13T03:16:53.538Z,97360.88
2023-01-13T03:19:43.699Z,97358.63
2023-01-13T03:22:27.689Z,97357.06
2023-01-13T03:25:03.258Z,97361.03
2023-01-13T03:27:43.561Z,97370.59
2023-01-13T03:30:21.341Z,97375.69
2023-01-13T03:32:56.965Z,97376.50
2023-01-13T03:35:33.448Z,97370.28
2023-01-13T03:38:10.492Z,97354.19
2023-01-13T03:40:47.051Z,97361.22
2023-01-13T03:43:40.030Z,97357.22
2023-01-13T03:46:15.661Z,97349.25
2023-01-13T03:48:46.758Z,97349.41
2023-01-13T03:51:25.445Z,97345.25
2023-01-13T03:54:01.782Z,97345.44
2023-01-13T03:56:37.828Z,97351.00
2023-01-13T03:59:12.312Z,97343.97
2023-01-13T04:01:52.970Z,97345.91
2023-01-13T04:04:27.715Z,97339.34
2023-01-13T04:07:13.506Z,97343.03
2023-01-13T04:09:52.027Z,97344.13
2023-01-13T04:12:49.516Z,97343.34
2023-01-13T04:15:21.900Z,97342.56
2023-01-13T04:17:52.299Z,97342.09
2023-01-13T04:20:21.436Z,97336.50
2023-01-13T04:22:51.322Z,97334.72
2023-01-13T04:25:19.930Z,97339.66
2023-01-13T04:27:48.400Z,97344.16
2023-01-13T04:30:17.729Z,97337.44
2023-01-13T04:32:46.296Z,97338.09
2023-01-13T04:35:15.036Z,97328.84
2023-01-13T04:37:43.653Z,97330.59
2023-01-13T04:40:14.883Z,97324.72
2023-01-13T04:42:45.078Z,97330.91
2023-01-13T04:45:14.603Z,97331.22
2023-01-13T04:47:43.383Z,97334.22
2023-01-13T04:50:12.970Z,97326.78
2023-01-13T04:52:42.006Z,97324.06
2023-01-13T04:55:12.985Z,97314.81
2023-01-13T04:57:41.476Z,97315.44
2023-01-13T05:00:13.400Z,97318.66
2023-01-13T05:02:42.540Z,97317.19
2023-01-13T05:05:12.740Z,97312.88
2023-01-13T05:07:41.258Z,97314.44
2023-01-13T05:10:11.844Z,97314.13
2023-01-13T05:12:59.035Z,97314.72
2023-01-13T05:15:45.293Z,97319.31
2023-01-13T05:18:14.651Z,97317.09
2023-01-13T05:20:43.512Z,97321.44
2023-01-13T05:23:29.473Z,97321.09
2023-01-13T05:25:58.140Z,97321.59
2023-01-13T05:28:32.375Z,97324.00
2023-01-13T05:31:01.787Z,97320.50
2023-01-13T05:33:30.359Z,97322.91
2023-01-13T05:36:04.531Z,97321.78
2023-01-13T05:38:33.106Z,97328.97
2023-01-13T05:41:15.639Z,97326.09
2023-01-13T05:43:45.599Z,97329.63
2023-01-13T05:46:14.943Z,97329.63
2023-01-13T05:48:44.731Z,97327.06
2023-01-13T05:51:14.725Z,97328.50
2023-01-13T05:53:43.347Z,97322.47
2023-01-13T05:56:13.036Z,97323.56
2023-01-13T05:58:41.754Z,97317.97
2023-01-13T06:01:12.232Z,97313.34
2023-01-13T06:03:41.010Z,97312.06
2023-01-13T06:06:09.974Z,97319.53
2023-01-13T06:08:39.915Z,97312.06
2023-01-13T06:11:08.921Z,97321.31
2023-01-13T06:13:37.699Z,97314.00
2023-01-13T06:16:07.095Z,97314.31
2023-01-13T06:18:37.162Z,97315.91
2023-01-13T06:21:06.064Z,97303.00
2023-01-13T06:23:38.540Z,97310.81
2023-01-13T06:26:15.565Z,97307.75
2023-01-13T06:28:44.183Z,97313.50
2023-01-13T06:31:13.750Z,97308.09
2023-01-13T06:33:50.456Z,97309.50
2023-01-13T06:36:23.712Z,97311.94
2023-01-13T06:38:57.764Z,97305.88
2023-01-13T06:41:43.967Z,97306.63
2023-01-13T06:44:12.896Z,97310.63
2023-01-13T06:46:41.650Z,97314.44
2023-01-13T06:49:11.691Z,97310.31
2023-01-13T06:51:40.211Z,97301.53
2023-01-13T06:54:08.825Z,97311.44
2023-01-13T06:56:39.055Z,97312.72
2023-01-13T06:59:08.010Z,97313.19
2023-01-13T07:01:36.649Z,97317.66
2023-01-13T07:04:05.733Z,97315.41
2023-01-13T07:06:35.729Z,97310.81
2023-01-13T07:09:06.728Z,97308.69
2023-01-13T07:11:35.343Z,97315.75
2023-01-13T07:14:21.505Z,97309.19
2023-01-13T07:16:50.179Z,97305.00
2023-01-13T07:19:23.282Z,97309.75
2023-01-13T07:21:54.068Z,97308.97
2023-01-13T07:24:23.536Z,97308.97
2023-01-13T07:26:53.422Z,97309.59
2023-01-13T07:29:22.230Z,97309.06
2023-01-13T07:31:51.152Z,97311.16
2023-01-13T07:34:19.762Z,97307.28
2023-01-13T07:36:48.483Z,97314.06
2023-01-13T07:39:18.686Z,97315.53
2023-01-13T07:42:01.186Z,97310.03
2023-01-13T07:44:30.022Z,97315.63
2023-01-13T07:46:58.649Z,97318.88
2023-01-13T07:49:27.346Z,97310.22
2023-01-13T07:51:55.990Z,97307.91
2023-01-13T07:54:39.635Z,97308.88
2023-01-13T07:57:09.616Z,97309.38
2023-01-13T07:59:38.247Z,97310.94
2023-01-13T08:02:07.428Z,97306.03
2023-01-13T08:04:36.163Z,97303.31
2023-01-13T08:07:06.496Z,97305.88
2023-01-13T08:09:36.634Z,97298.44
2023-01-13T08:12:23.273Z,97314.06
2023-01-13T08:14:54.019Z,97321.19
2023-01-13T08:17:22.819Z,97324.81
2023-01-13T08:19:51.620Z,97326.34
2023-01-13T08:22:20.339Z,97324.16
2023-01-13T08:24:50.323Z,97316.25
2023-01-13T08:27:20.252Z,97327.34
2023-01-13T08:29:48.962Z,97328.34
2023-01-13T08:32:17.625Z,97321.47
2023-01-13T08:34:46.237Z,97322.03
2023-01-13T08:37:15.050Z,97329.81
2023-01-13T08:39:43.742Z,97327.34
2023-01-13T08:42:14.182Z,97325.16
2023-01-13T08:44:42.825Z,97325.09
2023-01-13T08:47:11.475Z,97328.94
2023-01-13T08:49:40.364Z,97315.25
2023-01-13T08:52:09.132Z,97314.13
2023-01-13T08:54:39.804Z,97307.22
2023-01-13T08:57:08.777Z,97317.47
2023-01-13T08:59:39.047Z,97318.97
2023-01-13T09:02:15.391Z,97323.38
2023-01-13T09:04:44.699Z,97317.97
2023-01-13T09:07:13.878Z,97319.59
2023-01-13T09:09:42.579Z,97310.31
2023-01-13T09:12:31.582Z,97324.84
2023-01-13T09:15:02.530Z,97324.69
2023-01-13T09:17:31.288Z,97325.56
2023-01-13T09:19:59.919Z,97326.91
2023-01-13T09:22:28.640Z,97325.31
2023-01-13T09:24:57.519Z,97324.06
2023-01-13T09:27:26.261Z,97330.28
2023-01-13T09:29:54.972Z,97332.59
2023-01-13T09:32:24.897Z,97343.34
2023-01-13T09:35:01.673Z,97333.38
2023-01-13T09:37:34.128Z,97339.81
2023-01-13T09:40:03.793Z,97336.97
2023-01-13T09:43:05.137Z,97339.13
2023-01-13T09:45:41.965Z,97335.97
2023-01-13T09:48:21.936Z,97338.03
2023-01-13T09:51:04.185Z,97335.16
2023-01-13T09:53:41.079Z,97333.47
2023-01-13T09:56:12.223Z,97332.09
2023-01-13T09:58:41.060Z,97328.91
2023-01-13T10:01:26.533Z,97326.38
2023-01-13T10:03:56.878Z,97319.19
2023-01-13T10:06:35.765Z,97307.47
2023-01-13T10:09:04.823Z,97317.28
2023-01-13T10:11:58.099Z,97306.03
2023-01-13T10:14:36.073Z,97295.16
2023-01-13T10:17:20.327Z,97294.25
2023-01-13T10:19:59.791Z,97289.09
2023-01-13T10:22:53.539Z,97288.84
2023-01-13T10:25:34.626Z,97283.69
2023-01-13T10:28:11.043Z,97283.31
2023-01-13T10:30:42.967Z,97290.25
2023-01-13T10:33:15.890Z,97281.00
2023-01-13T10:36:00.260Z,97279.16
2023-01-13T10:38:37.958Z,97266.41
2023-01-13T10:41:19.382Z,97274.13
2023-01-13T10:44:02.383Z,97266.22
2023-01-13T10:46:34.301Z,97260.41
2023-01-13T10:49:05.571Z,97270.94
2023-01-13T10:51:45.978Z,97263.88
2023-01-13T10:54:22.535Z,97267.22
2023-01-13T10:57:16.039Z,97282.63
2023-01-13T10:59:45.388Z,97245.81
2023-01-13T11:02:27.834Z,97254.28
2023-01-13T11:05:25.619Z,97245.56
2023-01-13T11:07:58.005Z,97265.03
2023-01-13T11:10:31.321Z,97245.81
2023-01-13T11:13:08.508Z,97235.78
2023-01-13T11:15:48.337Z,97251.53
2023-01-13T11:18:27.690Z,97272.28
2023-01-13T11:20:59.856Z,97266.66
2023-01-13T11:23:38.211Z,97277.16
2023-01-13T11:26:17.423Z,97282.28
2023-01-13T11:28:56.060Z,97289.34
2023-01-13T11:31:33.372Z,97281.81
2023-01-13T11:34:15.068Z,97289.84
2023-01-13T11:36:51.738Z,97303.09
2023-01-13T11:39:31.129Z,97303.66
2023-01-13T11:42:24.422Z,97307.88
2023-01-13T11:45:08.322Z,97310.69
2023-01-13T11:47:37.839Z,97311.47
2023-01-13T11:50:18.627Z,97314.13
2023-01-13T11:53:12.757Z,97320.31
2023-01-13T11:55:59.849Z,97324.72
2023-01-13T11:59:03.343Z,97363.84
2023-01-13T12:02:06.375Z,97379.59
2023-01-13T12:04:50.328Z,97357.31
2023-01-13T12:07:23.513Z,97355.56
2023-01-13T12:10:11.602Z,97348.69
2023-01-13T12:12:57.893Z,97338.09
2023-01-13T12:16:15.143Z,97340.34
2023-01-13T12:19:24.352Z,97332.09
2023-01-13T12:22:12.032Z,97339.31
2023-01-13T12:24:50.449Z,97333.88
2023-01-13T12:27:36.820Z,97332.56
2023-01-13T12:30:24.741Z,97329.69
2023-01-13T12:32:58.627Z,97320.94
2023-01-13T12:35:42.668Z,97317.00
2023-01-13T12:38:24.278Z,97321.44
2023-01-13T12:41:07.861Z,97324.13
2023-01-13T12:44:05.271Z,97331.56
2023-01-13T12:47:00.638Z,97335.03
2023-01-13T12:49:32.907Z,97351.47
2023-01-13T12:52:14.964Z,97351.84
2023-01-13T12:55:10.135Z,97343.75
2023-01-13T12:57:40.309Z,97344.78
2023-01-13T13:00:18.088Z,97343.09
2023-01-13T13:03:29.262Z,97337.81
2023-01-13T13:06:07.419Z,97339.56
2023-01-13T13:09:05.758Z,97336.66
2023-01-13T13:12:02.412Z,97342.44
2023-01-13T13:15:06.985Z,97343.91
2023-01-13T13:18:01.223Z,97343.13
2023-01-13T13:21:06.029Z,97357.63
2023-01-13T13:23:48.984Z,97355.19
2023-01-13T13:26:30.741Z,97355.63
2023-01-13T13:29:44.564Z,97362.25
2023-01-13T13:32:54.428Z,97359.25
2023-01-13T13:35:46.416Z,97354.06
2023-01-13T13:39:03.171Z,97354.34
2023-01-13T13:41:53.593Z,97350.25
2023-01-13T13:44:45.687Z,97351.16
2023-01-13T13:47:14.621Z,97357.72
2023-01-13T13:49:48.700Z,97359.41
2023-01-13T13:52:25.674Z,97359.47
2023-01-13T13:55:04.275Z,97351.63
2023-01-13T13:57:39.876Z,97357.97
2023-01-13T14:00:26.607Z,97364.31
2023-01-13T14:03:01.152Z,97364.84
2023-01-13T14:05:32.109Z,97364.50
2023-01-13T14:08:03.913Z,97364.66
2023-01-13T14:10:37.227Z,97371.53
2023-01-13T14:13:16.865Z,97375.06
2023-01-13T14:15:47.302Z,97391.53
2023-01-13T14:18:20.694Z,97406.22
2023-01-13T14:20:56.861Z,97409.94
2023-01-13T14:23:30.555Z,97405.00
2023-01-13T14:26:09.979Z,97398.75
2023-01-13T14:28:41.236Z,97409.28
2023-01-13T14:31:12.589Z,97413.78
2023-01-13T14:33:47.082Z,97412.03
2023-01-13T14:36:20.568Z,97423.25
2023-01-13T14:39:11.581Z,97419.41
2023-01-13T14:41:50.567Z,97432.16
2023-01-13T14:44:27.129Z,97434.72
2023-01-13T14:46:58.640Z,97449.91
2023-01-13T14:49:36.047Z,97450.53
2023-01-13T14:52:16.233Z,97458.97
2023-01-13T14:54:52.009Z,97444.63
2023-01-13T14:57:28.631Z,97457.03
2023-01-13T15:00:04.868Z,97463.75
2023-01-13T15:02:46.271Z,97465.03
2023-01-13T15:05:47.338Z,97469.81
2023-01-13T15:08:40.657Z,97478.63
2023-01-13T15:11:25.032Z,97494.38
2023-01-13T15:14:02.314Z,97496.13
2023-01-13T15:16:33.904Z,97504.25
2023-01-13T15:19:04.503Z,97502.19
2023-01-13T15:21:33.183Z,97499.63
2023-01-13T15:24:01.862Z,97501.22
2023-01-13T15:26:34.900Z,97500.84
2023-01-13T15:29:07.789Z,97497.50
2023-01-13T15:31:36.366Z,97495.44
2023-01-13T15:34:05.060Z,97495.59
2023-01-13T15:36:36.873Z,97500.97
2023-01-13T15:39:05.758Z,97503.53
2023-01-13T15:41:48.464Z,97502.22
2023-01-13T15:44:36.388Z,97527.19
2023-01-13T15:47:09.348Z,97522.06
2023-01-13T15:49:42.016Z,97523.78
2023-01-13T15:52:21.501Z,97534.28
2023-01-13T15:54:50.359Z,97542.59
2023-01-13T15:57:24.824Z,97546.75
2023-01-13T15:59:57.675Z,97551.63
2023-01-13T16:02:26.470Z,97570.09
2023-01-13T16:04:55.145Z,97577.91
2023-01-13T16:07:26.834Z,97581.81
2023-01-13T16:09:55.576Z,97590.56
2023-01-13T16:12:24.355Z,97597.31
2023-01-13T16:14:54.512Z,97598.53
2023-01-13T16:17:29.106Z,97599.97
2023-01-13T16:19:57.859Z,97610.28
2023-01-13T16:22:26.964Z,97610.81
2023-01-13T16:24:56.103Z,97633.81
2023-01-13T16:27:26.985Z,97643.56
2023-01-13T16:29:57.084Z,97640.25
2023-01-13T16:32:25.726Z,97634.84
2023-01-13T16:34:54.381Z,97639.28
2023-01-13T16:37:26.350Z,97644.13
2023-01-13T16:39:56.040Z,97645.81
2023-01-13T16:42:24.768Z,97650.66
2023-01-13T16:44:53.536Z,97649.81
2023-01-13T16:47:24.325Z,97657.63
2023-01-13T16:49:53.328Z,97650.94
2023-01-13T16:52:22.032Z,97654.44
2023-01-13T16:54:50.743Z,97659.53
2023-01-13T16:57:19.463Z,97655.94
2023-01-13T16:59:48.407Z,97668.53
2023-01-13T17:02:20.215Z,97659.69
2023-01-13T17:04:50.901Z,97676.34
2023-01-13T17:07:23.902Z,97675.66
2023-01-13T17:09:52.591Z,97678.03
2023-01-13T17:12:21.190Z,97676.22
2023-01-13T17:14:49.903Z,97687.50
2023-01-13T17:17:24.495Z,97702.16
2023-01-13T17:19:55.826Z,97706.84
2023-01-13T17:22:24.501Z,97713.25
2023-01-13T17:24:53.119Z,97715.59
2023-01-13T17:27:23.005Z,97723.22
2023-01-13T17:29:52.016Z,97721.28
2023-01-13T17:32:22.997Z,97732.50
2023-01-13T17:34:53.786Z,97718.66
2023-01-13T17:37:23.896Z,97721.69
2023-01-13T17:39:53.614Z,97728.06
2023-01-13T17:42:24.146Z,97725.56
2023-01-13T17:44:53.204Z,97733.50
2023-01-13T17:47:22.241Z,97737.19
2023-01-13T17:49:51.016Z,97750.25
2023-01-13T17:52:20.270Z,97752.44
2023-01-13T17:54:50.291Z,97754.06
2023-01-13T17:57:22.858Z,97752.75
2023-01-13T17:59:51.572Z,97746.34
2023-01-13T18:02:20.452Z,97751.66
2023-01-13T18:04:49.143Z,97752.19
2023-01-13T18:07:17.865Z,97751.88
2023-01-13T18:09:46.537Z,97753.19
2023-01-13T18:12:16.773Z,97749.06
2023-01-13T18:14:45.587Z,97751.38
2023-01-13T18:17:14.183Z,97748.47
2023-01-13T18:20:00.733Z,97743.88
2023-01-13T18:22:46.845Z,97754.72
2023-01-13T18:25:33.199Z,97755.13
2023-01-13T18:28:03.215Z,97770.81
2023-01-13T18:30:31.909Z,97775.16
2023-01-13T18:33:00.553Z,97775.09
2023-01-13T18:35:30.104Z,97779.88
2023-01-13T18:37:58.704Z,97780.78
2023-01-13T18:40:27.294Z,97783.16
2023-01-13T18:42:55.323Z,97777.72
2023-01-13T18:45:28.048Z,97782.25
2023-01-13T18:47:59.577Z,97785.06
2023-01-13T18:50:28.725Z,97779.81
2023-01-13T18:52:57.933Z,97790.28
2023-01-13T18:55:28.995Z,97789.06
2023-01-13T18:57:59.079Z,97787.53
2023-01-13T19:00:31.071Z,97788.59
2023-01-13T19:05:36.386Z,97800.28
2023-01-13T19:08:05.794Z,97803.34
2023-01-13T19:10:34.685Z,97799.84
2023-01-13T19:13:03.404Z,97802.06
2023-01-13T19:15:33.587Z,97801.59
2023-01-13T19:18:02.315Z,97803.31
2023-01-13T19:20:31.228Z,97805.00
2023-01-13T19:22:59.842Z,97812.59
2023-01-13T19:25:28.442Z,97811.63
2023-01-13T19:27:57.002Z,97817.97
2023-01-13T19:30:25.624Z,97830.59
2023-01-13T19:32:55.571Z,97824.47
2023-01-13T19:35:24.167Z,97828.28
2023-01-13T19:37:54.036Z,97827.22
2023-01-13T19:40:22.782Z,97828.47
2023-01-13T19:43:08.844Z,97832.28
2023-01-13T19:45:37.549Z,97837.59
2023-01-13T19:48:08.609Z,97839.78
2023-01-13T19:50:39.605Z,97838.66
2023-01-13T19:53:12.834Z,97844.56
2023-01-13T19:55:47.697Z,97858.38
2023-01-13T19:58:18.748Z,97871.84
2023-01-13T20:00:48.518Z,97868.69
2023-01-13T20:03:23.641Z,97867.25
2023-01-13T20:05:53.325Z,97872.63
2023-01-13T20:08:23.694Z,97862.59
2023-01-13T20:11:12.340Z,97862.75
2023-01-13T20:13:40.943Z,97872.09
2023-01-13T20:16:10.850Z,97873.53
2023-01-13T20:18:40.857Z,97882.41
2023-01-13T20:21:10.877Z,97883.56
2023-01-13T20:23:39.715Z,97890.59
2023-01-13T20:26:09.221Z,97893.03
2023-01-13T20:28:39.481Z,97890.03
2023-01-13T20:31:09.625Z,97898.41
2023-01-13T20:33:40.932Z,97912.63
2023-01-13T20:36:25.409Z,97913.94
2023-01-13T20:38:59.041Z,97908.13
2023-01-13T20:41:46.068Z,97913.44
2023-01-13T20:44:16.018Z,97906.53
2023-01-13T20:46:46.148Z,97916.91
2023-01-13T20:49:17.132Z,97920.91
2023-01-13T20:51:45.945Z,97924.00
2023-01-13T20:54:15.248Z,97929.59
2023-01-13T20:56:44.663Z,97935.16
2023-01-13T20:59:13.912Z,97945.03
2023-01-13T21:01:42.703Z,97938.19
2023-01-13T21:04:11.912Z,97941.00
2023-01-13T21:06:42.560Z,97935.25
2023-01-13T21:09:11.301Z,97944.44
2023-01-13T21:11:57.434Z,97942.84
2023-01-13T21:14:46.305Z,97949.50
2023-01-13T21:17:40.305Z,97949.09
2023-01-13T21:20:11.196Z,97953.22
2023-01-13T21:22:45.924Z,97949.59
2023-01-13T21:25:16.543Z,97935.28
2023-01-13T21:27:45.508Z,97946.28
2023-01-13T21:30:17.269Z,97939.47
2023-01-13T21:32:46.788Z,97945.81
2023-01-13T21:35:16.076Z,97946.81
2023-01-13T21:37:46.209Z,97945.34
2023-01-13T21:40:15.753Z,97936.31
2023-01-13T21:43:02.182Z,97943.03
2023-01-13T21:45:48.321Z,97941.78
2023-01-13T21:48:17.031Z,97932.88
2023-01-13T21:50:45.683Z,97932.59
2023-01-13T21:53:15.823Z,97942.03
2023-01-13T21:55:44.410Z,97958.63
2023-01-13T21:58:15.084Z,97961.91
2023-01-13T22:00:46.380Z,97957.44
2023-01-13T22:03:19.973Z,97958.25
2023-01-13T22:05:55.872Z,97961.78
2023-01-13T22:08:25.852Z,97962.19
2023-01-13T22:10:58.534Z,97961.28
2023-01-13T22:13:47.494Z,97968.50
2023-01-13T22:16:17.057Z,97958.88
2023-01-13T22:18:45.687Z,97973.38
2023-01-13T22:21:14.383Z,97974.78
2023-01-13T22:23:44.326Z,97975.78
2023-01-13T22:26:13.726Z,97978.44
2023-01-13T22:28:43.178Z,97980.56
2023-01-13T22:31:14.342Z,97971.84
2023-01-13T22:33:47.174Z,97977.53
2023-01-13T22:36:17.396Z,97981.81
2023-01-13T22:38:47.344Z,97991.44
2023-01-13T22:41:16.228Z,97987.97
2023-01-13T22:43:44.758Z,98000.84
2023-01-13T22:46:14.984Z,98003.31
2023-01-13T22:48:43.486Z,97989.38
2023-01-13T22:51:14.912Z,97993.69
2023-01-13T22:53:44.359Z,97995.59
2023-01-13T22:56:19.997Z,98000.31
2023-01-13T22:58:49.014Z,97986.59
2023-01-13T23:01:19.288Z,98005.56
2023-01-13T23:03:49.150Z,98022.34
2023-01-13T23:06:20.708Z,98013.66
2023-01-13T23:08:49.977Z,98012.06
2023-01-13T23:11:24.599Z,98014.47
2023-01-13T23:13:59.699Z,98024.34
2023-01-13T23:16:30.600Z,98018.41
2023-01-13T23:18:59.525Z,98031.84
2023-01-13T23:21:30.907Z,98023.44
2023-01-13T23:24:00.834Z,98032.03
2023-01-13T23:26:32.574Z,98030.31
2023-01-13T23:29:02.763Z,98028.91
2023-01-13T23:31:31.560Z,98029.16
2023-01-13T23:34:00.844Z,98031.19
2023-01-13T23:36:30.951Z,98026.53
2023-01-13T23:39:00.762Z,98029.97
2023-01-13T23:41:30.677Z,98026.13
2023-01-13T23:44:01.591Z,98032.00
2023-01-13T23:46:33.888Z,98040.56
2023-01-13T23:49:04.322Z,98041.47
2023-01-13T23:51:33.542Z,98051.19
2023-01-13T23:54:02.465Z,98058.75
2023-01-13T23:56:34.037Z,98053.47
2023-01-13T23:59:02.806Z,98059.34
